createdAt,value
2023-03-26T00:00:34.148Z,0.68
2023-03-26T00:05:37.524Z,0.70
2023-03-26T00:10:43.068Z,0.75
2023-03-26T00:15:48.918Z,0.60
2023-03-26T00:20:52.299Z,0.65
2023-03-26T00:25:56.547Z,0.50
2023-03-26T00:31:03.990Z,0.80
2023-03-26T00:36:11.461Z,1.08
2023-03-26T00:41:23.226Z,0.90
2023-03-26T00:46:31.100Z,0.65
2023-03-26T00:51:35.433Z,0.50
2023-03-26T00:56:40.540Z,0.80
2023-03-26T01:01:45.607Z,0.43
2023-03-26T01:06:49.078Z,0.68
2023-03-26T01:11:52.623Z,0.80
2023-03-26T01:16:59.702Z,0.60
2023-03-26T01:22:03.362Z,0.50
2023-03-26T01:27:36.199Z,0.68
2023-03-26T01:32:55.648Z,0.57
2023-03-26T01:38:11.672Z,0.63
2023-03-26T01:48:22.970Z,0.73
2023-03-26T01:53:26.964Z,0.50
2023-03-26T01:58:38.597Z,0.52
2023-03-26T02:03:47.910Z,0.50
2023-03-26T02:08:57.664Z,0.60
2023-03-26T02:14:02.728Z,0.70
2023-03-26T02:19:10.070Z,0.90
2023-03-26T02:24:13.768Z,0.50
2023-03-26T02:29:20.669Z,0.70
2023-03-26T02:34:24.836Z,1.05
2023-03-26T02:39:30.377Z,0.80
2023-03-26T02:44:40.918Z,0.73
2023-03-26T02:49:50.270Z,0.55
2023-03-26T02:55:13.944Z,0.70
2023-03-26T03:00:22.718Z,0.83
2023-03-26T03:05:27.530Z,0.85
2023-03-26T03:10:43.950Z,0.73
2023-03-26T03:16:01.712Z,0.80
2023-03-26T03:21:06.471Z,0.93
2023-03-26T03:26:15.854Z,0.75
2023-03-26T03:31:25.989Z,1.02
2023-03-26T03:36:38.658Z,1.38
2023-03-26T03:42:00.120Z,1.15
2023-03-26T03:47:05.365Z,1.23
2023-03-26T03:52:09.154Z,0.93
2023-03-26T03:57:18.865Z,0.98
2023-03-26T04:02:43.061Z,1.02
2023-03-26T04:07:47.041Z,0.77
2023-03-26T04:13:05.357Z,0.90
2023-03-26T04:18:30.287Z,1.00
2023-03-26T04:23:37.990Z,0.77
2023-03-26T04:29:02.784Z,0.93
2023-03-26T04:34:13.710Z,1.00
2023-03-26T04:39:30.114Z,0.88
2023-03-26T04:50:00.429Z,0.50
2023-03-26T04:55:03.863Z,0.63
2023-03-26T05:00:15.485Z,0.70
2023-03-26T05:05:23.529Z,0.50
2023-03-26T05:10:27.390Z,0.73
2023-03-26T05:15:36.506Z,0.63
2023-03-26T05:21:05.067Z,0.52
2023-03-26T05:26:11.020Z,0.47
2023-03-26T05:31:15.575Z,0.40
2023-03-26T05:36:24.540Z,0.60
2023-03-26T05:41:54.341Z,0.70
2023-03-26T05:47:03.892Z,0.90
2023-03-26T05:52:09.370Z,0.85
2023-03-26T05:57:33.300Z,0.95
2023-03-26T06:02:57.747Z,0.75
2023-03-26T06:08:31.585Z,0.65
2023-03-26T06:13:35.737Z,0.75
2023-03-26T06:18:40.763Z,0.80
2023-03-26T06:24:03.693Z,0.65
2023-03-26T06:29:16.117Z,1.15
2023-03-26T06:34:30.942Z,2.00
2023-03-26T06:39:35.504Z,0.77
2023-03-26T06:44:50.916Z,0.50
2023-03-26T06:50:13.110Z,0.85
2023-03-26T06:55:40.675Z,0.93
2023-03-26T07:01:03.026Z,0.90
2023-03-26T07:06:24.728Z,1.00
2023-03-26T07:11:47.957Z,0.68
2023-03-26T07:17:10.103Z,1.83
2023-03-26T07:22:24.841Z,1.42
2023-03-26T07:27:50.600Z,0.82
2023-03-26T07:33:07.627Z,1.23
2023-03-26T07:38:34.252Z,1.35
2023-03-26T07:44:35.752Z,1.75
2023-03-26T07:50:19.563Z,1.20
2023-03-26T07:55:42.437Z,1.70
2023-03-26T08:01:11.334Z,1.52
2023-03-26T08:06:21.501Z,1.90
2023-03-26T08:11:53.556Z,1.90
2023-03-26T08:17:06.918Z,1.48
2023-03-26T08:22:16.857Z,1.85
2023-03-26T08:27:29.559Z,1.25
2023-03-26T08:32:34.995Z,1.42
2023-03-26T08:37:39.239Z,2.28
2023-03-26T08:43:10.568Z,1.40
2023-03-26T08:48:54.040Z,2.05
2023-03-26T08:54:35.922Z,1.73
2023-03-26T09:00:20.562Z,2.20
2023-03-26T09:06:12.241Z,1.90
2023-03-26T09:12:00.597Z,2.10
2023-03-26T09:17:49.200Z,1.88
2023-03-26T09:23:42.440Z,2.70
2023-03-26T09:29:15.692Z,2.30
2023-03-26T09:34:30.587Z,2.35
2023-03-26T09:39:40.224Z,3.33
2023-03-26T09:45:15.349Z,2.92
2023-03-26T09:50:37.034Z,2.25
2023-03-26T09:55:51.559Z,2.38
2023-03-26T10:01:01.488Z,2.47
2023-03-26T10:06:16.627Z,2.25
2023-03-26T10:11:28.479Z,2.38
2023-03-26T10:16:40.294Z,2.78
2023-03-26T10:21:52.311Z,2.22
2023-03-26T10:27:14.450Z,2.40
2023-03-26T10:32:27.280Z,2.08
2023-03-26T10:37:46.287Z,2.05
2023-03-26T10:43:37.525Z,2.50
2023-03-26T10:49:23.973Z,2.90
2023-03-26T10:59:39.523Z,1.77
2023-03-26T11:04:52.244Z,2.47
2023-03-26T11:10:03.565Z,2.15
2023-03-26T11:15:19.678Z,1.40
2023-03-26T11:20:31.897Z,1.80
2023-03-26T11:26:15.731Z,2.13
2023-03-26T11:31:29.797Z,1.98
2023-03-26T11:36:37.521Z,2.10
2023-03-26T11:41:42.129Z,2.00
2023-03-26T11:47:04.559Z,2.13
2023-03-26T11:52:08.931Z,1.90
2023-03-26T11:57:20.164Z,1.80
2023-03-26T12:02:32.493Z,1.55
2023-03-26T12:07:36.545Z,1.60
2023-03-26T12:12:43.475Z,1.50
2023-03-26T12:17:48.257Z,2.10
2023-03-26T12:22:53.917Z,1.98
2023-03-26T12:28:02.573Z,2.20
2023-03-26T12:33:07.658Z,3.90
2023-03-26T12:38:27.424Z,1.90
2023-03-26T12:44:46.260Z,1.13
2023-03-26T12:49:03.347Z,1.17
2023-03-26T12:54:24.081Z,1.00
2023-03-26T12:59:42.696Z,1.33
2023-03-26T13:05:05.749Z,1.65
2023-03-26T13:10:37.562Z,1.60
2023-03-26T13:15:47.307Z,1.13
2023-03-26T13:21:00.764Z,1.25
2023-03-26T13:26:14.026Z,1.83
2023-03-26T13:31:25.491Z,1.38
2023-03-26T13:36:37.157Z,2.10
2023-03-26T13:42:07.739Z,1.20
2023-03-26T13:47:16.745Z,1.55
2023-03-26T13:52:26.453Z,1.35
2023-03-26T13:57:33.877Z,1.65
2023-03-26T14:02:41.656Z,1.10
2023-03-26T14:07:48.887Z,1.33
2023-03-26T14:12:58.231Z,1.80
2023-03-26T14:18:23.724Z,1.65
2023-03-26T14:23:53.686Z,1.25
2023-03-26T14:29:26.201Z,1.35
2023-03-26T14:34:45.341Z,1.00
2023-03-26T14:40:05.757Z,1.17
2023-03-26T14:45:44.437Z,0.88
2023-03-26T14:50:59.593Z,0.90
2023-03-26T14:56:27.505Z,1.75
2023-03-26T15:01:52.968Z,1.27
2023-03-26T15:07:39.207Z,1.10
2023-03-26T15:18:41.285Z,1.05
2023-03-26T15:24:21.011Z,1.35
2023-03-26T15:29:51.798Z,1.27
2023-03-26T15:35:24.081Z,1.15
2023-03-26T15:40:48.802Z,1.08
2023-03-26T15:46:19.981Z,1.23
2023-03-26T15:51:49.338Z,1.15
2023-03-26T15:57:09.091Z,1.70
2023-03-26T16:02:27.782Z,1.30
2023-03-26T16:07:47.934Z,1.48
2023-03-26T16:13:11.045Z,1.40
2023-03-26T16:18:31.983Z,1.27
2023-03-26T16:23:53.749Z,1.35
2023-03-26T16:29:19.729Z,1.50
2023-03-26T16:39:44.070Z,1.10
2023-03-26T16:44:53.064Z,1.55
2023-03-26T16:50:10.706Z,1.02
2023-03-26T16:55:22.807Z,1.63
2023-03-26T17:00:54.989Z,1.40
2023-03-26T17:06:20.918Z,1.48
2023-03-26T17:11:32.467Z,2.00
2023-03-26T17:16:39.239Z,2.10
2023-03-26T17:21:52.813Z,2.40
2023-03-26T17:27:04.207Z,1.27
2023-03-26T17:32:11.366Z,1.00
2023-03-26T17:37:34.200Z,1.60
2023-03-26T17:42:37.625Z,1.23
2023-03-26T17:47:44.660Z,1.00
2023-03-26T17:52:56.472Z,1.27
2023-03-26T17:58:01.424Z,1.23
2023-03-26T18:03:12.543Z,1.20
2023-03-26T18:08:45.213Z,1.50
2023-03-26T18:14:23.580Z,1.38
2023-03-26T18:19:28.170Z,3.30
2023-03-26T18:24:37.599Z,1.23
2023-03-26T18:29:45.415Z,1.45
2023-03-26T18:34:52.538Z,2.00
2023-03-26T18:40:02.448Z,1.60
2023-03-26T18:45:11.515Z,2.03
2023-03-26T18:50:18.361Z,2.42
2023-03-26T18:55:23.595Z,1.92
2023-03-26T19:00:30.825Z,1.85
2023-03-26T19:05:36.145Z,1.77
2023-03-26T19:10:40.791Z,1.70
2023-03-26T19:15:46.915Z,1.60
2023-03-26T19:20:52.295Z,1.23
2023-03-26T19:25:59.845Z,1.58
2023-03-26T19:31:10.165Z,1.38
2023-03-26T19:36:21.163Z,1.67
2023-03-26T19:41:27.957Z,1.40
2023-03-26T19:46:52.830Z,1.23
2023-03-26T19:52:13.669Z,1.23
2023-03-26T19:57:18.406Z,1.30
2023-03-26T20:02:21.991Z,2.20
2023-03-26T20:07:35.907Z,2.17
2023-03-26T20:12:41.100Z,3.03
2023-03-26T20:17:44.747Z,4.03
2023-03-26T20:22:49.803Z,4.88
2023-03-26T20:27:55.455Z,5.17
2023-03-26T20:33:12.832Z,3.90
2023-03-26T20:38:18.216Z,4.40
2023-03-26T20:43:28.771Z,4.30
2023-03-26T20:48:32.289Z,3.15
2023-03-26T20:53:35.879Z,3.38
2023-03-26T20:58:41.141Z,3.13
2023-03-26T21:03:46.333Z,1.05
2023-03-26T21:08:50.271Z,1.45
2023-03-26T21:14:02.252Z,1.38
2023-03-26T21:19:06.140Z,1.95
2023-03-26T21:24:15.269Z,2.00
2023-03-26T21:29:21.185Z,2.92
2023-03-26T21:34:25.327Z,3.60
2023-03-26T21:39:30.241Z,3.58
2023-03-26T21:44:35.918Z,3.53
2023-03-26T21:49:40.203Z,3.60
2023-03-26T21:54:44.186Z,3.78
2023-03-26T21:59:52.722Z,3.40
2023-03-26T22:05:02.711Z,2.83
2023-03-26T22:10:07.050Z,2.85
2023-03-26T22:15:14.129Z,2.65
2023-03-26T22:20:19.540Z,3.38
2023-03-26T22:25:23.886Z,2.83
2023-03-26T22:30:29.170Z,4.18
2023-03-26T22:35:33.140Z,4.13
2023-03-26T22:40:36.765Z,4.68
2023-03-26T22:45:41.850Z,4.05
2023-03-26T22:50:45.490Z,3.35
2023-03-26T22:55:49.256Z,3.22
2023-03-26T23:01:01.964Z,2.42
2023-03-26T23:06:08.369Z,2.45
2023-03-26T23:11:13.939Z,2.55
2023-03-26T23:16:19.964Z,4.07
2023-03-26T23:21:23.830Z,2.75
2023-03-26T23:26:34.931Z,2.80
2023-03-26T23:31:43.642Z,2.85
2023-03-26T23:36:47.432Z,2.50
2023-03-26T23:41:51.117Z,2.35
2023-03-26T23:46:58.301Z,2.53
2023-03-26T23:52:02.354Z,3.40
2023-03-26T23:57:06.574Z,2.72
